Arlington, SD

12:09 PM CDT on April 28, 2015 (GMT -0500)
Arlington, SD | | Change Station
CLOSE
Current Station
Personal Weather Station
Location: Arlington, SD
Elevation: 1808 ft
Nearby Weather Stations

Elev 1808 ft 44.38 °N, 97.08 °W | Updated 6 seconds ago

Mostly Cloudy
Mostly Cloudy
52.3 °F
Feels Like 52.3 °F
N
16.0
Wind Variable Wind from NE
Gusts 16.0 mph

Today
High -- | Low -- °F
--% Chance of Precip.
Yesterday
High -- | Low -- °F
Precip. -- in
6:24 AM 8:28 PM
Waxing Gibbous, 75% visible
Pressure 30.25 in
Visibility 10.0 miles
Clouds Mostly Cloudy 1700 ft
Overcast 7000 ft
Dew Point 45 °F
Humidity 77%
Rainfall 0.00 in
Snow Depth Not available.
UV 6.2 out of 12
Pollen 10.40 out of 12
Air Quality Not available.
Flu Activity Sporadic
METAR KBKX 281655Z AUTO 34013G16KT 10SM BKN017 OVC070 11/07 A3025 RMK AO1

More Conditions Fewer Conditions

Pressure 30.25 in
Visibility 10.0 miles
Clouds Mostly Cloudy 1700 ft
Overcast 7000 ft
Dew Point 45 °F
Humidity 77%
Rainfall 0.00 in
Snow Depth Not available.
UV 6.2 out of 12
Pollen 10.40 out of 12
Air Quality Not available.
Flu Activity Sporadic
METAR KBKX 281655Z AUTO 34013G16KT 10SM BKN017 OVC070 11/07 A3025 RMK AO1

More Conditions Fewer Conditions

10-Day Weather Forecast

Almanac

Astronomy

Apr. 28, 2015 Rise Set
Actual Time
Civil Twilight
Nautical Twilight
Astronomical Twilight
Moon
Length of Visible Light
Length of Day
Tomorrow will be .
, % of the Moon is Illuminated

Today's Extremes

State Highs State Lows

Community

WunderPhotos

Upload Photos

1,817,706 photos uploaded!

WunderBlogs® & News

Nearby

Air Quality

  Air Quality AQ Index Pollutant
Not available.

Snow Depth

Station Depth Elevation

Earthquake Activity

City Distance Mag. Time & Date
Minimum magnitude displayed is 2.5.

Coastal Water Temperatures

Place Temperature

Stations

Nearby Weather Stations

Station Location Temp. Windchill Dew Point Humidity Wind Precip. Elev Updated Type